Time;durP1;ratioP1;P1;durP2;ratioP2;P2;SDS_P1;SDS_P2;PMS_P1;PMS_P2;Temp;Humidity;BMP_temperature;BMP_pressure;BME280_temperature;BME280_humidity;BME280_pressure;Samples;Min_cycle;Max_cycle;Signal;HPM_P1;HPM_P2
2021/04/22 00:01:13;;;;;;;28.10;5.35;;;;;;;4.23;60.54;102282.94;5103869;28;20020;-61
2021/04/22 00:03:39;;;;;;;26.23;4.90;;;;;;;4.15;60.83;102285.16;5107219;28;20439;-61
2021/04/22 00:06:04;;;;;;;24.65;5.10;;;;;;;4.05;61.41;102287.19;5103986;28;20024;-61
2021/04/22 00:08:30;;;;;;;28.05;4.97;;;;;;;3.93;61.64;102293.56;5105596;28;20448;-61
2021/04/22 00:10:57;;;;;;;27.95;5.20;;;;;;;3.90;61.85;102287.25;5104497;28;20027;-61
2021/04/22 00:13:26;;;;;;;25.48;4.60;;;;;;;3.83;62.29;102286.03;5104788;28;20036;-61
2021/04/22 00:15:52;;;;;;;27.83;5.00;;;;;;;3.81;61.88;102288.53;5105406;28;20490;-61
2021/04/22 00:18:17;;;;;;;24.40;5.20;;;;;;;3.74;62.56;102286.44;5103669;28;20032;-61
2021/04/22 00:20:43;;;;;;;29.25;5.57;;;;;;;3.65;63.04;102292.03;5106758;28;20039;-61
2021/04/22 00:23:11;;;;;;;24.30;4.80;;;;;;;3.65;62.52;102297.25;5102988;28;20024;-61
2021/04/22 00:25:36;;;;;;;23.90;5.00;;;;;;;3.65;62.41;102293.75;5106180;28;20019;-61
2021/04/22 00:28:04;;;;;;;27.60;4.78;;;;;;;3.60;62.53;102297.84;5103899;28;20115;-61
2021/04/22 00:30:30;;;;;;;27.17;5.43;;;;;;;3.54;62.96;102292.25;5105475;28;20370;-61
2021/04/22 00:32:55;;;;;;;27.60;5.57;;;;;;;3.42;63.40;102298.59;5104590;28;20023;-61
2021/04/22 00:35:21;;;;;;;27.23;5.18;;;;;;;3.37;63.74;102301.75;5104035;28;20024;-61
2021/04/22 00:37:47;;;;;;;27.40;4.80;;;;;;;3.25;63.80;102301.97;5105740;28;20024;-61
2021/04/22 00:40:23;;;;;;;26.17;4.75;;;;;;;3.16;63.91;102297.13;5101482;28;20470;-61
2021/04/22 00:42:49;;;;;;;27.63;5.30;;;;;;;3.05;64.58;102303.41;5100876;28;20050;-61
2021/04/22 00:45:16;;;;;;;28.88;5.28;;;;;;;3.05;65.06;102301.69;5105853;28;20068;-61
2021/04/22 00:47:41;;;;;;;25.55;5.30;;;;;;;3.00;64.63;102303.16;5102581;28;20043;-61
2021/04/22 00:50:09;;;;;;;28.60;5.50;;;;;;;2.91;65.65;102303.53;5105927;28;20106;-61
2021/04/22 00:52:35;;;;;;;27.40;5.53;;;;;;;2.85;66.37;102307.47;5103260;28;20382;-61
2021/04/22 00:55:00;;;;;;;27.05;5.53;;;;;;;2.82;66.49;102305.56;5104911;28;20020;-61
2021/04/22 00:57:25;;;;;;;25.45;5.05;;;;;;;2.82;67.27;102312.50;5104061;28;20054;-61
2021/04/22 00:59:51;;;;;;;23.50;5.43;;;;;;;2.77;67.04;102314.84;5103326;28;20028;-61
2021/04/22 01:02:17;;;;;;;21.30;4.90;;;;;;;2.69;67.21;102311.78;5105590;27;20012;-61
2021/04/22 01:04:44;;;;;;;24.65;4.88;;;;;;;2.67;67.70;102315.13;5102427;28;20035;-61
2021/04/22 01:07:10;;;;;;;26.70;5.65;;;;;;;2.57;67.67;102311.03;5097979;28;20027;-61
2021/04/22 01:09:35;;;;;;;24.90;4.80;;;;;;;2.53;67.77;102332.56;5105272;28;20023;-61
2021/04/22 01:12:02;;;;;;;25.15;5.00;;;;;;;2.45;67.99;102319.03;5103617;28;20030;-61
2021/04/22 01:14:28;;;;;;;24.95;5.10;;;;;;;2.43;67.66;102321.56;5104330;28;20054;-61
2021/04/22 01:16:53;;;;;;;30.13;6.18;;;;;;;2.43;67.56;102334.63;5104324;28;20053;-61
2021/04/22 01:19:19;;;;;;;26.00;5.18;;;;;;;2.33;67.83;102340.06;5102656;28;20020;-61
2021/04/22 01:21:44;;;;;;;25.85;5.47;;;;;;;2.21;68.35;102326.25;5104998;27;20027;-61
2021/04/22 01:24:10;;;;;;;27.10;5.75;;;;;;;2.12;68.61;102331.81;5102158;28;20016;-61
2021/04/22 01:26:36;;;;;;;28.83;5.32;;;;;;;2.03;68.91;102326.91;5105076;28;20112;-61
2021/04/22 01:29:02;;;;;;;27.63;6.07;;;;;;;1.95;69.43;102335.94;5102730;28;20023;-61
2021/04/22 01:31:29;;;;;;;28.58;5.85;;;;;;;1.96;69.54;102339.47;5103988;28;20031;-61
2021/04/22 01:34:07;;;;;;;30.77;5.85;;;;;;;1.97;68.99;102346.50;5103939;28;20056;-61
2021/04/22 01:36:38;;;;;;;25.80;5.60;;;;;;;1.92;70.42;102344.50;5104211;28;20496;-61
2021/04/22 01:39:06;;;;;;;26.88;6.32;;;;;;;1.93;70.74;102345.41;5102332;28;20036;-61
2021/04/22 01:41:31;;;;;;;26.52;5.90;;;;;;;1.87;70.69;102350.22;5104461;28;20024;-61
2021/04/22 01:43:57;;;;;;;26.73;6.15;;;;;;;1.77;70.71;102343.50;5103040;28;20051;-61
2021/04/22 01:46:23;;;;;;;27.30;5.75;;;;;;;1.74;71.32;102354.63;5102523;28;20123;-61
2021/04/22 01:48:48;;;;;;;25.95;5.78;;;;;;;1.80;71.16;102342.81;5104555;28;20091;-61
2021/04/22 01:51:14;;;;;;;28.27;5.95;;;;;;;1.81;70.95;102347.25;5101510;28;20051;-61
2021/04/22 01:53:39;;;;;;;28.85;5.97;;;;;;;1.77;71.29;102353.94;5097309;28;20471;-61
2021/04/22 01:56:05;;;;;;;27.83;6.05;;;;;;;1.79;72.14;102341.94;5104341;28;20067;-61
2021/04/22 01:58:30;;;;;;;26.73;6.40;;;;;;;1.77;71.90;102346.13;5102517;28;20118;-61
2021/04/22 02:00:58;;;;;;;25.48;5.78;;;;;;;1.82;71.70;102351.63;5102972;28;20016;-61
2021/04/22 02:03:26;;;;;;;28.08;6.10;;;;;;;1.81;71.54;102355.06;5103644;28;20030;-61
2021/04/22 02:05:51;;;;;;;25.80;5.40;;;;;;;1.73;71.60;102347.66;5102056;28;20197;-61
2021/04/22 02:08:17;;;;;;;27.55;5.90;;;;;;;1.68;71.56;102355.97;5104270;28;20110;-61
2021/04/22 02:10:43;;;;;;;27.13;5.70;;;;;;;1.56;71.71;102363.91;5101272;28;20028;-61
2021/04/22 02:13:11;;;;;;;26.83;5.60;;;;;;;1.48;72.19;102362.50;5104580;28;20028;-61
2021/04/22 02:15:37;;;;;;;25.85;5.65;;;;;;;1.39;72.39;102366.28;5101500;28;20025;-61
2021/04/22 02:18:03;;;;;;;28.40;5.90;;;;;;;1.35;72.79;102360.78;5104085;28;20024;-61
2021/04/22 02:20:29;;;;;;;28.95;6.05;;;;;;;1.37;72.84;102359.19;5102819;28;20369;-61
2021/04/22 02:22:54;;;;;;;28.48;5.80;;;;;;;1.41;72.79;102370.69;5102893;28;20035;-61
2021/04/22 02:25:22;;;;;;;27.42;5.55;;;;;;;1.47;72.29;102372.03;5103869;28;20477;-61
2021/04/22 02:27:48;;;;;;;27.80;5.63;;;;;;;1.48;72.36;102367.69;5101436;28;20035;-61
2021/04/22 02:30:23;;;;;;;27.50;5.85;;;;;;;1.45;73.14;102375.31;5104771;28;20027;-61
2021/04/22 02:32:49;;;;;;;23.33;5.07;;;;;;;1.44;72.87;102371.78;5099739;28;20039;-61
2021/04/22 02:35:19;;;;;;;24.83;5.38;;;;;;;1.39;72.70;102370.59;5108572;28;20364;-61
2021/04/22 02:37:45;;;;;;;25.02;5.38;;;;;;;1.29;73.12;102371.69;5101627;28;20111;-61
2021/04/22 02:40:14;;;;;;;22.67;5.30;;;;;;;1.19;73.04;102370.19;5108898;28;20023;-61
2021/04/22 02:42:40;;;;;;;24.30;5.43;;;;;;;1.14;73.08;102363.75;5105242;28;20031;-61
2021/04/22 02:45:11;;;;;;;24.77;6.25;;;;;;;1.11;73.86;102367.88;5107808;28;20027;-61
2021/04/22 02:47:37;;;;;;;27.55;6.32;;;;;;;1.06;74.84;102370.16;5105784;28;20085;-61
2021/04/22 02:50:06;;;;;;;25.55;5.93;;;;;;;1.06;74.45;102367.53;5107211;28;20036;-61
2021/04/22 02:52:32;;;;;;;26.55;5.35;;;;;;;1.04;74.29;102370.03;5105757;28;20023;-61
2021/04/22 02:54:57;;;;;;;24.60;5.47;;;;;;;1.03;74.33;102370.88;5106807;28;20024;-61
2021/04/22 02:57:22;;;;;;;25.92;5.93;;;;;;;1.08;74.32;102371.16;5106997;28;20048;-61
2021/04/22 02:59:48;;;;;;;25.52;5.97;;;;;;;1.09;73.82;102361.66;5105361;28;20523;-61
2021/04/22 03:02:13;;;;;;;26.42;5.43;;;;;;;1.03;74.19;102369.94;5108399;28;20111;-61
2021/04/22 03:04:38;;;;;;;26.13;6.25;;;;;;;0.97;73.70;102373.03;5104567;28;20028;-61
2021/04/22 03:07:04;;;;;;;26.05;5.72;;;;;;;0.89;74.18;102379.44;5107072;28;20036;-61
2021/04/22 03:09:29;;;;;;;26.58;5.82;;;;;;;0.78;74.35;102388.22;5106323;28;20032;-61
2021/04/22 03:11:54;;;;;;;28.40;6.32;;;;;;;0.75;75.02;102378.47;5105868;28;20385;-61
2021/04/22 03:14:20;;;;;;;24.73;6.15;;;;;;;0.69;75.40;102371.16;5107285;28;20114;-61
2021/04/22 03:16:45;;;;;;;27.08;5.93;;;;;;;0.69;75.70;102381.56;5104510;28;20111;-61
2021/04/22 03:19:11;;;;;;;28.40;6.05;;;;;;;0.65;76.19;102376.94;5108199;28;20530;-61
2021/04/22 03:21:36;;;;;;;30.13;6.43;;;;;;;0.65;76.25;102378.66;5104650;28;20428;-61
2021/04/22 03:24:02;;;;;;;23.95;6.07;;;;;;;0.62;76.16;102387.13;5106837;28;20024;-61
2021/04/22 03:26:27;;;;;;;26.67;6.47;;;;;;;0.62;77.22;102386.25;5105834;28;20034;-61
2021/04/22 03:28:52;;;;;;;26.50;6.50;;;;;;;0.68;76.76;102379.78;5105579;28;20074;-61
2021/04/22 03:31:18;;;;;;;25.75;5.95;;;;;;;0.68;76.52;102369.38;5107261;28;20034;-61
2021/04/22 03:33:43;;;;;;;25.10;5.78;;;;;;;0.73;76.51;102377.50;5104419;28;20047;-61
2021/04/22 03:36:08;;;;;;;23.50;5.32;;;;;;;0.75;76.39;102377.59;5107490;28;20036;-61
2021/04/22 03:38:34;;;;;;;27.60;5.80;;;;;;;0.74;76.63;102376.66;5104819;28;20473;-61
2021/04/22 03:40:59;;;;;;;23.20;6.07;;;;;;;0.77;76.06;102379.50;5105852;28;20095;-61
2021/04/22 03:43:25;;;;;;;27.25;6.57;;;;;;;0.69;75.91;102372.88;5106237;28;20405;-61
2021/04/22 03:45:50;;;;;;;25.55;5.88;;;;;;;0.73;75.79;102376.56;5104446;28;20024;-61
2021/04/22 03:48:15;;;;;;;25.65;5.57;;;;;;;0.62;75.95;102379.34;5107400;28;20076;-61
2021/04/22 03:50:41;;;;;;;27.42;6.95;;;;;;;0.51;77.09;102375.06;5103863;28;20030;-61
2021/04/22 03:53:06;;;;;;;24.33;6.10;;;;;;;0.44;77.50;102370.28;5106564;28;20470;-61
2021/04/22 03:55:31;;;;;;;27.65;6.18;;;;;;;0.41;77.90;102377.84;5104799;27;20102;-61
2021/04/22 03:57:57;;;;;;;24.90;5.97;;;;;;;0.40;78.09;102376.06;5105231;28;20159;-61
2021/04/22 04:00:24;;;;;;;27.00;5.97;;;;;;;0.37;78.42;102378.44;5106151;28;20061;-61
2021/04/22 04:02:50;;;;;;;24.45;6.15;;;;;;;0.40;77.94;102373.44;5104404;28;20404;-61
2021/04/22 04:05:15;;;;;;;24.10;6.10;;;;;;;0.43;77.54;102379.75;5107208;28;20100;-61
2021/04/22 04:07:41;;;;;;;25.80;5.82;;;;;;;0.42;77.73;102384.84;5099082;28;20020;-61
2021/04/22 04:10:08;;;;;;;26.08;6.35;;;;;;;0.41;77.25;102383.03;5106499;28;20352;-61
2021/04/22 04:12:33;;;;;;;25.83;6.20;;;;;;;0.43;77.37;102379.75;5104408;28;20501;-61
2021/04/22 04:14:59;;;;;;;28.50;6.20;;;;;;;0.44;77.69;102380.69;5105166;28;20099;-61
2021/04/22 04:17:24;;;;;;;24.33;6.18;;;;;;;0.46;77.58;102385.16;5105906;28;20032;-61
2021/04/22 04:19:51;;;;;;;26.40;6.00;;;;;;;0.43;76.52;102384.97;5103956;28;20110;-61
2021/04/22 04:22:16;;;;;;;25.25;5.90;;;;;;;0.37;77.12;102386.25;5106435;28;20463;-61
2021/04/22 04:24:42;;;;;;;25.65;5.90;;;;;;;0.30;77.03;102385.78;5103191;28;20023;-61
2021/04/22 04:27:07;;;;;;;27.38;6.63;;;;;;;0.19;76.98;102399.75;5106023;28;20033;-61
2021/04/22 04:29:32;;;;;;;32.95;6.60;;;;;;;0.17;77.79;102403.94;5104147;28;20032;-61
2021/04/22 04:31:57;;;;;;;27.98;6.60;;;;;;;0.22;78.39;102410.38;5104805;28;20028;-61
2021/04/22 04:34:23;;;;;;;27.95;6.75;;;;;;;0.22;78.87;102410.38;5105364;28;20382;-61
2021/04/22 04:36:48;;;;;;;27.40;6.43;;;;;;;0.28;79.07;102413.41;5103194;28;20060;-61
2021/04/22 04:39:14;;;;;;;28.20;7.05;;;;;;;0.33;79.04;102417.22;5106323;28;20024;-61
2021/04/22 04:41:41;;;;;;;26.42;6.30;;;;;;;0.30;79.09;102413.50;5102807;28;20493;-61
2021/04/22 04:44:06;;;;;;;30.60;7.20;;;;;;;0.28;79.10;102409.91;5105500;28;20027;-61
2021/04/22 04:46:32;;;;;;;28.90;7.47;;;;;;;0.26;79.20;102415.00;5104092;28;20073;-61
2021/04/22 04:48:57;;;;;;;31.65;7.35;;;;;;;0.28;79.24;102416.00;5104254;28;20028;-61
2021/04/22 04:51:23;;;;;;;30.52;7.03;;;;;;;0.32;79.24;102420.63;5105251;28;20060;-61
2021/04/22 04:53:48;;;;;;;29.27;6.72;;;;;;;0.42;78.64;102423.88;5102645;28;20539;-61
2021/04/22 04:56:17;;;;;;;27.77;7.28;;;;;;;0.55;78.57;102420.44;5105286;28;20036;-61
2021/04/22 04:58:43;;;;;;;33.40;7.22;;;;;;;0.59;78.85;102428.56;5098581;28;20035;-61
2021/04/22 05:01:08;;;;;;;27.65;6.80;;;;;;;0.65;78.57;102417.69;5105312;28;20035;-61
2021/04/22 05:03:33;;;;;;;31.55;7.18;;;;;;;0.68;78.25;102420.50;5103562;28;20110;-61
2021/04/22 05:05:58;;;;;;;33.25;7.80;;;;;;;0.67;78.02;102421.28;5104105;28;20059;-61
2021/04/22 05:08:24;;;;;;;29.17;7.82;;;;;;;0.66;79.28;102430.81;5103010;28;20031;-61
2021/04/22 05:10:49;;;;;;;30.10;7.85;;;;;;;0.70;79.47;102434.56;5102631;28;20032;-61
2021/04/22 05:13:14;;;;;;;31.65;8.20;;;;;;;0.68;79.28;102444.88;5105979;28;20055;-61
2021/04/22 05:15:39;;;;;;;33.60;8.63;;;;;;;0.74;78.67;102443.47;5102380;28;20486;-61
2021/04/22 05:18:05;;;;;;;28.80;7.88;;;;;;;0.84;78.45;102445.91;5104555;28;20039;-61
2021/04/22 05:20:30;;;;;;;32.63;7.95;;;;;;;0.90;78.09;102448.94;5103613;28;20019;-61
2021/04/22 05:22:56;;;;;;;32.75;8.50;;;;;;;0.95;78.30;102444.97;5103146;28;20067;-61
2021/04/22 05:25:21;;;;;;;29.05;7.75;;;;;;;1.03;78.30;102443.78;5104638;28;20110;-61
2021/04/22 05:27:46;;;;;;;33.33;8.38;;;;;;;1.11;78.33;102441.72;5101951;28;20034;-61
2021/04/22 05:30:12;;;;;;;30.95;8.15;;;;;;;1.16;78.67;102450.72;5105460;28;20027;-61
2021/04/22 05:32:38;;;;;;;29.80;8.48;;;;;;;1.24;77.97;102448.66;5102448;28;20032;-61
2021/04/22 05:35:03;;;;;;;32.85;8.30;;;;;;;1.26;77.95;102448.75;5104149;28;20455;-61
2021/04/22 05:37:29;;;;;;;36.13;8.93;;;;;;;1.23;78.02;102451.16;5103514;28;20031;-61
2021/04/22 05:39:54;;;;;;;34.63;8.95;;;;;;;1.19;78.84;102460.47;5098318;28;20047;-62
2021/04/22 05:42:19;;;;;;;33.58;8.90;;;;;;;1.23;78.90;102467.69;5098637;28;20028;-62
2021/04/22 05:44:45;;;;;;;33.17;8.93;;;;;;;1.25;79.21;102468.69;5101490;28;20035;-62
2021/04/22 05:47:10;;;;;;;33.67;9.00;;;;;;;1.38;78.71;102467.81;5098913;28;20027;-62
2021/04/22 05:49:36;;;;;;;31.75;8.68;;;;;;;1.51;78.65;102474.78;5103080;28;20026;-63
2021/04/22 05:52:01;;;;;;;32.58;9.35;;;;;;;1.54;78.72;102468.06;5096415;28;20024;-62
2021/04/22 05:54:27;;;;;;;33.25;9.73;;;;;;;1.68;78.48;102471.59;5101418;28;20030;-62
2021/04/22 05:56:52;;;;;;;32.47;9.35;;;;;;;1.81;77.16;102478.53;5101424;28;20414;-62
2021/04/22 05:59:17;;;;;;;31.80;9.30;;;;;;;1.96;76.90;102475.13;5102944;28;20028;-61
2021/04/22 06:01:43;;;;;;;31.70;8.98;;;;;;;2.05;75.67;102476.63;5097919;28;20028;-62
2021/04/22 06:04:08;;;;;;;31.63;8.65;;;;;;;2.13;75.38;102479.72;5101631;28;20445;-62
2021/04/22 06:06:34;;;;;;;34.17;9.00;;;;;;;2.30;75.40;102485.13;5101921;28;20024;-62
2021/04/22 06:08:59;;;;;;;34.28;9.27;;;;;;;2.41;74.43;102478.88;5100893;28;20465;-62
2021/04/22 06:11:25;;;;;;;33.85;8.63;;;;;;;2.55;74.23;102492.81;5099748;28;20035;-62
2021/04/22 06:13:50;;;;;;;35.42;9.20;;;;;;;2.68;73.58;102492.78;5103795;28;20031;-61
2021/04/22 06:16:16;;;;;;;34.28;9.60;;;;;;;2.83;72.87;102497.19;5098575;28;20042;-62
2021/04/22 06:18:41;;;;;;;35.83;8.73;;;;;;;2.94;72.11;102498.72;5100225;28;20028;-62
2021/04/22 06:21:06;;;;;;;35.22;8.90;;;;;;;3.05;72.09;102497.69;5098761;28;20028;-62
2021/04/22 06:23:32;;;;;;;34.70;8.95;;;;;;;3.16;71.74;102502.66;5101259;28;20040;-61
2021/04/22 06:25:57;;;;;;;34.08;8.70;;;;;;;3.28;71.53;102503.41;5101243;28;20028;-61
2021/04/22 06:28:23;;;;;;;30.65;9.20;;;;;;;3.38;71.81;102508.38;5096024;28;20480;-62
2021/04/22 06:30:50;;;;;;;31.20;9.20;;;;;;;3.49;70.67;102503.78;5101147;28;20031;-62
2021/04/22 06:33:15;;;;;;;31.25;9.18;;;;;;;3.59;70.48;102502.63;5098731;28;20028;-61
2021/04/22 06:35:41;;;;;;;32.53;9.13;;;;;;;3.69;69.74;102502.38;5099021;28;20036;-62
2021/04/22 06:38:07;;;;;;;31.10;8.57;;;;;;;3.78;69.96;102508.13;5102258;28;20055;-62
2021/04/22 06:40:32;;;;;;;31.33;8.70;;;;;;;3.91;68.87;102501.91;5096729;28;20024;-61
2021/04/22 06:42:58;;;;;;;28.00;7.88;;;;;;;4.04;68.53;102508.75;5098758;28;20035;-61
2021/04/22 06:45:23;;;;;;;31.20;7.68;;;;;;;4.18;67.94;102514.78;5099319;28;20086;-62
2021/04/22 06:47:49;;;;;;;31.02;8.25;;;;;;;4.33;67.54;102509.50;5099455;28;20077;-62
2021/04/22 06:50:21;;;;;;;28.95;7.50;;;;;;;4.46;65.84;102501.53;5100900;28;20020;-61
2021/04/22 06:52:47;;;;;;;31.08;7.50;;;;;;;4.61;65.54;102508.44;5094327;28;20036;-62
2021/04/22 06:55:19;;;;;;;27.38;7.45;;;;;;;4.70;64.99;102506.31;5099083;28;20024;-61
2021/04/22 06:57:45;;;;;;;29.25;7.40;;;;;;;4.77;63.84;102503.19;5096909;28;20041;-62
2021/04/22 07:00:17;;;;;;;31.58;7.40;;;;;;;4.83;63.24;102519.25;5099179;28;20038;-62
2021/04/22 07:02:43;;;;;;;30.45;7.22;;;;;;;4.93;63.42;102518.03;5098623;28;20073;-62
2021/04/22 07:05:09;;;;;;;28.73;6.65;;;;;;;5.00;63.17;102521.91;5097481;28;20478;-62
2021/04/22 07:07:36;;;;;;;26.08;7.10;;;;;;;5.13;62.43;102540.09;5099215;28;20027;-62
2021/04/22 07:10:01;;;;;;;33.80;7.28;;;;;;;5.19;62.54;102535.16;5097187;28;20031;-61
2021/04/22 07:12:27;;;;;;;29.15;6.75;;;;;;;5.39;61.39;102532.72;5095672;28;20020;-62
2021/04/22 07:14:53;;;;;;;27.73;6.55;;;;;;;5.64;60.31;102540.13;5098737;28;20016;-62
2021/04/22 07:17:18;;;;;;;25.88;6.97;;;;;;;5.90;57.84;102537.94;5094453;28;20107;-62
2021/04/22 07:19:44;;;;;;;28.50;6.32;;;;;;;6.02;57.08;102542.94;5099049;28;20065;-62
2021/04/22 07:22:09;;;;;;;27.45;6.38;;;;;;;6.23;58.06;102541.38;5101541;28;20375;-62
2021/04/22 07:24:37;;;;;;;33.30;6.78;;;;;;;6.46;58.32;102544.22;5098579;27;20362;-62
2021/04/22 07:27:03;;;;;;;28.02;6.63;;;;;;;6.68;57.33;102548.75;5103210;28;20085;-62
2021/04/22 07:29:29;;;;;;;27.77;6.47;;;;;;;6.83;56.31;102542.44;5100218;28;20455;-62
2021/04/22 07:31:54;;;;;;;28.08;6.57;;;;;;;7.03;55.24;102548.63;5101927;28;20036;-62
2021/04/22 07:34:19;;;;;;;27.20;5.82;;;;;;;7.17;53.84;102555.41;5102176;28;20019;-62
2021/04/22 07:36:45;;;;;;;26.30;5.97;;;;;;;7.43;53.01;102547.81;5098560;28;20476;-62
2021/04/22 07:39:11;;;;;;;27.05;6.40;;;;;;;7.64;52.29;102548.72;5102896;28;20023;-62
2021/04/22 07:41:36;;;;;;;28.38;6.45;;;;;;;7.93;53.13;102556.97;5100042;28;20027;-62
2021/04/22 07:44:02;;;;;;;26.95;6.35;;;;;;;8.31;51.48;102554.16;5102830;28;20020;-62
2021/04/22 07:46:27;;;;;;;28.75;6.30;;;;;;;8.68;50.21;102556.56;5099992;28;20463;-62
2021/04/22 07:48:52;;;;;;;27.90;6.35;;;;;;;8.99;49.64;102563.03;5101559;28;20122;-62
2021/04/22 07:51:18;;;;;;;25.45;6.45;;;;;;;9.20;48.41;102557.66;5098293;28;20034;-62
2021/04/22 07:53:43;;;;;;;28.95;6.97;;;;;;;9.45;48.39;102553.28;5102523;28;20032;-62
2021/04/22 07:56:08;;;;;;;23.33;6.22;;;;;;;9.59;47.60;102557.28;5101752;28;20096;-62
2021/04/22 07:58:34;;;;;;;25.52;5.97;;;;;;;9.59;46.63;102556.41;5100072;28;20044;-62
2021/04/22 08:00:59;;;;;;;27.13;6.63;;;;;;;9.87;47.54;102558.28;5102841;28;20035;-62
2021/04/22 08:03:25;;;;;;;27.05;6.95;;;;;;;10.07;47.40;102551.03;5102303;28;20077;-63
2021/04/22 08:05:55;;;;;;;27.58;6.80;;;;;;;10.34;46.14;102558.13;5103459;28;20028;-62
2021/04/22 08:08:21;;;;;;;25.35;5.88;;;;;;;10.57;43.75;102552.66;5106529;28;20062;-62
2021/04/22 08:10:47;;;;;;;25.05;5.65;;;;;;;10.48;43.04;102558.53;5103785;28;20459;-62
2021/04/22 08:13:14;;;;;;;25.23;5.60;;;;;;;10.60;42.92;102555.38;5105294;28;20027;-62
2021/04/22 08:15:42;;;;;;;28.05;6.03;;;;;;;10.55;43.63;102562.31;5105169;28;20023;-62
2021/04/22 08:18:08;;;;;;;24.45;5.55;;;;;;;10.49;43.77;102559.47;5104730;28;20043;-62
2021/04/22 08:20:34;;;;;;;26.33;5.85;;;;;;;10.76;43.28;102562.97;5105779;28;20062;-62
2021/04/22 08:23:02;;;;;;;22.85;5.20;;;;;;;11.29;42.55;102567.16;5103655;28;20038;-62
2021/04/22 08:25:33;;;;;;;26.30;5.18;;;;;;;12.18;40.13;102555.44;5106513;28;20106;-63
2021/04/22 08:27:58;;;;;;;24.50;5.53;;;;;;;12.59;39.01;102560.84;5103039;28;20073;-63
2021/04/22 08:30:33;;;;;;;24.42;5.50;;;;;;;12.89;39.84;102565.94;5105923;28;20423;-63
2021/04/22 08:32:59;;;;;;;26.73;5.40;;;;;;;12.38;39.05;102561.25;5099841;28;20103;-63
2021/04/22 08:35:25;;;;;;;23.60;5.20;;;;;;;12.20;38.64;102562.59;5106494;28;20111;-63
2021/04/22 08:37:50;;;;;;;22.35;4.80;;;;;;;12.65;38.45;102565.38;5103160;28;20440;-62
2021/04/22 08:40:17;;;;;;;23.08;5.05;;;;;;;12.44;38.33;102566.69;5105480;28;20108;-63
2021/04/22 08:42:43;;;;;;;24.77;4.90;;;;;;;12.19;39.40;102568.72;5104176;28;20028;-63
2021/04/22 08:45:12;;;;;;;25.30;4.90;;;;;;;12.02;40.22;102584.19;5104618;28;20024;-62
2021/04/22 08:47:39;;;;;;;24.83;5.35;;;;;;;12.75;39.71;102575.34;5105227;28;20031;-62
2021/04/22 08:50:08;;;;;;;22.60;4.63;;;;;;;14.11;36.52;102568.34;5103494;28;20401;-63
2021/04/22 08:52:33;;;;;;;22.38;4.68;;;;;;;15.13;33.97;102576.97;5105185;28;20470;-63
2021/04/22 08:54:59;;;;;;;22.85;5.10;;;;;;;16.07;32.78;102569.16;5103112;28;20024;-63
2021/04/22 08:57:25;;;;;;;22.17;4.70;;;;;;;16.58;30.60;102573.09;5105573;28;20510;-63
2021/04/22 08:59:52;;;;;;;21.20;4.47;;;;;;;17.13;30.45;102569.88;5102640;28;20454;-63
2021/04/22 09:02:18;;;;;;;21.10;4.60;;;;;;;17.54;29.44;102574.47;5105252;28;20023;-63
2021/04/22 09:04:44;;;;;;;21.42;4.40;;;;;;;16.69;30.03;102571.38;5097076;28;20024;-64
2021/04/22 09:07:09;;;;;;;22.63;4.53;;;;;;;15.76;30.97;102572.38;5100771;28;20028;-64
2021/04/22 09:09:34;;;;;;;22.88;4.82;;;;;;;14.83;32.10;102573.03;5095938;28;20016;-66
2021/04/22 09:12:00;;;;;;;21.90;4.50;;;;;;;14.03;33.81;102561.13;5099627;28;20072;-64
2021/04/22 09:14:25;;;;;;;21.75;4.80;;;;;;;13.36;35.29;102573.16;5096661;28;20072;-63
2021/04/22 09:16:51;;;;;;;22.98;4.90;;;;;;;13.01;35.62;102569.75;5096482;28;20367;-64
2021/04/22 09:19:19;;;;;;;23.20;5.13;;;;;;;12.81;37.15;102572.81;5092298;28;20012;-65
2021/04/22 09:21:52;;;;;;;23.00;4.80;;;;;;;12.74;37.35;102568.25;5094135;28;20502;-63
2021/04/22 09:24:19;;;;;;;;;;;;;;;13.05;36.78;102575.16;5095404;28;20013;-63
2021/04/22 09:26:58;;;;;;;22.27;5.43;;;;;;;12.62;37.22;102570.63;5093430;28;20002;-63
2021/04/22 09:29:32;;;;;;;22.17;5.38;;;;;;;12.85;37.06;102569.38;5098977;28;20035;-62
2021/04/22 09:32:09;;;;;;;24.30;5.80;;;;;;;13.00;36.29;102565.28;5096292;28;20028;-62
2021/04/22 09:34:34;;;;;;;24.10;5.97;;;;;;;13.06;37.13;102566.31;5090962;28;20032;-62
2021/04/22 09:37:00;;;;;;;24.25;5.60;;;;;;;14.18;35.04;102561.34;5099247;28;20374;-62
2021/04/22 09:39:28;;;;;;;22.58;5.25;;;;;;;15.29;33.28;102564.72;5102270;28;20390;-63
2021/04/22 09:42:05;;;;;;;23.05;5.40;;;;;;;14.96;33.40;102563.44;5100483;28;20020;-62
2021/04/22 09:44:31;;;;;;;23.35;5.75;;;;;;;14.82;32.97;102569.50;5099188;28;20378;-63
2021/04/22 09:47:04;;;;;;;22.77;5.28;;;;;;;14.50;34.07;102568.97;5092272;28;20099;-64
2021/04/22 09:49:30;;;;;;;22.27;5.30;;;;;;;14.21;35.04;102566.75;5092486;28;20028;-63
2021/04/22 09:52:06;;;;;;;24.35;5.13;;;;;;;13.87;35.92;102575.91;5095343;28;20028;-63
2021/04/22 09:54:41;;;;;;;23.73;5.72;;;;;;;13.77;36.55;102577.47;5102944;28;20026;-63
2021/04/22 09:57:06;;;;;;;21.52;4.88;;;;;;;13.67;35.25;102555.16;5101076;28;20449;-62
2021/04/22 09:59:31;;;;;;;22.65;5.82;;;;;;;13.34;37.41;102577.56;5100581;28;20027;-62
2021/04/22 10:02:01;;;;;;;23.25;5.55;;;;;;;13.62;36.40;102570.13;5093662;28;20028;-62
2021/04/22 10:04:38;;;;;;;22.98;5.30;;;;;;;13.77;35.81;102567.78;5100026;28;20026;-62
2021/04/22 10:07:19;;;;;;;22.13;5.45;;;;;;;13.82;35.51;102573.16;5095747;28;20016;-62
2021/04/22 10:09:45;;;;;;;24.02;5.68;;;;;;;14.19;34.61;102579.09;5097282;28;20500;-62
2021/04/22 10:12:21;;;;;;;22.05;5.05;;;;;;;16.81;31.96;102565.22;5100197;28;20020;-63
2021/04/22 10:14:46;;;;;;;20.98;4.80;;;;;;;18.27;28.59;102563.88;5098181;28;20024;-62
2021/04/22 10:17:22;;;;;;;23.60;5.35;;;;;;;18.31;29.10;102576.38;5102973;28;20038;-62
2021/04/22 10:20:04;;;;;;;23.13;5.30;;;;;;;17.96;29.44;102566.56;5100788;28;20366;-62
2021/04/22 10:22:34;;;;;;;21.80;4.93;;;;;;;17.97;28.94;102568.34;5100452;28;20048;-63
2021/04/22 10:25:03;;;;;;;21.70;4.95;;;;;;;18.81;27.27;102570.03;5096849;28;20116;-63
2021/04/22 10:27:29;;;;;;;20.25;4.75;;;;;;;20.77;25.42;102575.06;5096464;28;20386;-63
2021/04/22 10:29:55;;;;;;;19.42;4.82;;;;;;;22.09;22.60;102566.97;5103420;28;20028;-63
2021/04/22 10:32:22;;;;;;;20.65;4.93;;;;;;;23.01;21.88;102568.88;5102078;28;20055;-63
2021/04/22 10:34:50;;;;;;;21.20;4.72;;;;;;;23.24;21.08;102565.75;5102860;28;20070;-63
2021/04/22 10:37:16;;;;;;;19.63;5.18;;;;;;;23.27;20.90;102562.97;5102772;28;20111;-63
2021/04/22 10:39:42;;;;;;;22.83;5.50;;;;;;;22.92;20.76;102565.47;5102538;28;20091;-63
2021/04/22 10:42:08;;;;;;;20.00;4.93;;;;;;;21.46;22.03;102555.34;5103957;28;20369;-63
2021/04/22 10:44:33;;;;;;;21.90;5.40;;;;;;;21.86;23.46;102545.84;5100804;28;20036;-63
2021/04/22 10:46:59;;;;;;;21.98;5.68;;;;;;;23.01;20.89;102559.00;5094920;28;20036;-63
2021/04/22 10:49:25;;;;;;;21.48;5.30;;;;;;;22.30;21.17;102549.56;5101348;28;20528;-63
2021/04/22 10:51:50;;;;;;;20.73;4.63;;;;;;;22.59;21.89;102551.75;5103456;28;20129;-63
2021/04/22 10:54:16;;;;;;;20.48;4.88;;;;;;;23.92;20.42;102542.63;5104091;28;20023;-63
2021/04/22 10:56:41;;;;;;;20.55;5.22;;;;;;;24.31;20.11;102550.63;5105688;28;20111;-64
2021/04/22 10:59:07;;;;;;;22.00;4.90;;;;;;;25.48;19.04;102539.16;5108039;28;20023;-63
2021/04/22 11:01:36;;;;;;;19.10;4.65;;;;;;;24.79;19.37;102541.22;5104712;28;20073;-63
2021/04/22 11:04:08;;;;;;;20.90;5.03;;;;;;;23.43;21.00;102541.94;5096864;28;20035;-64
2021/04/22 11:06:35;;;;;;;;;;;;;;;23.27;21.53;102542.31;5101575;28;20490;-63
2021/04/22 11:09:21;;;;;;;22.23;5.60;;;;;;;21.92;22.25;102545.72;5099933;28;19912;-63
2021/04/22 11:11:58;;;;;;;21.83;5.38;;;;;;;23.80;21.29;102543.78;5097931;28;20067;-63
2021/04/22 11:14:35;;;;;;;20.50;5.00;;;;;;;24.81;19.59;102539.34;5097731;28;20061;-63
2021/04/22 11:17:00;;;;;;;24.27;5.60;;;;;;;23.50;20.44;102544.47;5102047;28;20485;-63
2021/04/22 11:19:33;;;;;;;22.48;5.63;;;;;;;21.97;22.62;102549.22;5100620;28;20028;-63
2021/04/22 11:22:06;;;;;;;22.13;5.60;;;;;;;22.28;22.61;102551.41;5101527;28;20020;-63